Time;durP1;ratioP1;P1;durP2;ratioP2;P2;SDS_P1;SDS_P2;PMS_P1;PMS_P2;Temp;Humidity;BMP_temperature;BMP_pressure;BME280_temperature;BME280_humidity;BME280_pressure;Samples;Min_cycle;Max_cycle;Signal;HPM_P1;HPM_P2
2022/04/24 00:01:11;;;;;;;;;;;10.30;99.90;;;;;;5153521;27;20294;-76
2022/04/24 00:03:37;;;;;;;;;;;10.30;99.90;;;;;;5154535;27;19919;-76
2022/04/24 00:06:02;;;;;;;;;;;10.30;99.90;;;;;;5154579;27;19911;-76
2022/04/24 00:08:28;;;;;;;;;;;10.20;99.90;;;;;;5153759;27;19997;-76
2022/04/24 00:10:54;;;;;;;;;;;10.10;99.90;;;;;;5156353;27;19951;-76
2022/04/24 00:13:19;;;;;;;;;;;10.00;99.90;;;;;;5158371;27;19907;-76
2022/04/24 00:15:45;;;;;;;;;;;10.00;99.90;;;;;;5157559;27;19951;-76
2022/04/24 00:18:10;;;;;;;;;;;10.10;99.90;;;;;;5157839;27;19907;-76
2022/04/24 00:20:37;;;;;;;;;;;10.00;99.90;;;;;;5157846;27;19945;-76
2022/04/24 00:23:03;;;;;;;;;;;10.00;99.90;;;;;;5157914;27;19926;-76
2022/04/24 00:25:28;;;;;;;;;;;10.00;99.90;;;;;;5157849;27;20313;-76
2022/04/24 00:27:54;;;;;;;;;;;10.00;99.90;;;;;;5157462;27;19913;-76
2022/04/24 00:30:20;;;;;;;;;;;10.00;99.90;;;;;;5157979;27;20267;-76
2022/04/24 00:32:45;;;;;;;;;;;9.90;99.90;;;;;;5157302;27;20328;-76
2022/04/24 00:35:11;;;;;;;;;;;9.90;99.90;;;;;;5157773;27;19907;-76
2022/04/24 00:37:36;;;;;;;;;;;9.90;99.90;;;;;;5158225;27;19913;-76
2022/04/24 00:40:02;;;;;;;;;;;9.90;99.90;;;;;;5157193;27;19918;-76
2022/04/24 00:42:29;;;;;;;;;;;9.90;99.90;;;;;;5139073;27;20279;-75
2022/04/24 00:44:55;;;;;;;;;;;9.90;99.90;;;;;;5156997;27;19914;-75
2022/04/24 00:47:22;;;;;;;;;;;9.90;99.90;;;;;;5157619;27;20279;-75
2022/04/24 00:49:47;;;;;;;;;;;9.80;99.90;;;;;;5156759;27;20021;-75
2022/04/24 00:52:13;;;;;;;;;;;9.80;99.90;;;;;;5139316;27;19947;-74
2022/04/24 00:54:39;;;;;;;;;;;9.80;99.90;;;;;;5157394;27;19907;-75
2022/04/24 00:57:08;;;;;;;;;;;9.70;99.90;;;;;;5157406;27;19923;-74
2022/04/24 00:59:34;;;;;;;;;;;9.70;99.90;;;;;;5157490;27;19907;-74
2022/04/24 01:02:04;;;;;;;;;;;9.60;99.90;;;;;;5156921;27;19907;-75
2022/04/24 01:04:29;;;;;;;;;;;9.50;99.90;;;;;;5138563;27;20023;-74
2022/04/24 01:06:55;;;;;;;;;;;9.50;99.90;;;;;;5137776;27;19950;-74
2022/04/24 01:09:22;;;;;;;;;;;9.40;99.90;;;;;;5157089;27;19987;-74
2022/04/24 01:11:52;;;;;;;;;;;9.40;99.90;;;;;;5138209;27;19914;-74
2022/04/24 01:14:18;;;;;;;;;;;9.40;99.90;;;;;;5138347;27;19914;-74
2022/04/24 01:16:44;;;;;;;;;;;9.40;99.90;;;;;;5156533;27;19914;-75
2022/04/24 01:19:10;;;;;;;;;;;9.40;99.90;;;;;;5138830;27;20275;-74
2022/04/24 01:21:35;;;;;;;;;;;9.40;99.90;;;;;;5155543;27;19908;-75
2022/04/24 01:24:04;;;;;;;;;;;9.40;99.90;;;;;;5156420;27;19915;-74
2022/04/24 01:26:30;;;;;;;;;;;9.30;99.90;;;;;;5156735;27;19930;-74
2022/04/24 01:28:56;;;;;;;;;;;9.30;99.90;;;;;;5156742;27;20344;-74
2022/04/24 01:31:21;;;;;;;;;;;9.30;99.90;;;;;;5156985;27;19953;-74
2022/04/24 01:33:47;;;;;;;;;;;9.20;99.90;;;;;;5156252;27;19907;-74
2022/04/24 01:36:13;;;;;;;;;;;9.20;99.90;;;;;;5156809;27;19908;-74
2022/04/24 01:38:39;;;;;;;;;;;9.20;99.90;;;;;;5156414;27;19914;-74
2022/04/24 01:41:04;;;;;;;;;;;9.20;99.90;;;;;;5137463;27;20660;-74
2022/04/24 01:43:30;;;;;;;;;;;9.20;99.90;;;;;;5156520;27;19922;-75
2022/04/24 01:45:56;;;;;;;;;;;9.20;99.90;;;;;;5155924;27;20315;-75
2022/04/24 01:48:21;;;;;;;;;;;9.10;99.90;;;;;;5155993;27;20272;-74
2022/04/24 01:50:47;;;;;;;;;;;9.20;99.90;;;;;;5155837;27;19914;-74
2022/04/24 01:53:12;;;;;;;;;;;9.20;99.90;;;;;;5156538;27;19914;-74
2022/04/24 01:55:38;;;;;;;;;;;9.20;99.90;;;;;;5155843;27;19923;-74
2022/04/24 01:58:03;;;;;;;;;;;9.10;99.90;;;;;;5155695;27;19907;-75
2022/04/24 02:00:30;;;;;;;;;;;9.10;99.90;;;;;;5156377;27;20444;-74
2022/04/24 02:02:56;;;;;;;;;;;9.10;99.90;;;;;;5155187;27;19915;-74
2022/04/24 02:05:21;;;;;;;;;;;9.10;99.90;;;;;;5155981;27;19950;-75
2022/04/24 02:07:47;;;;;;;;;;;9.10;99.90;;;;;;5155651;27;19955;-74
2022/04/24 02:10:12;;;;;;;;;;;9.00;99.90;;;;;;5155826;27;19936;-75
2022/04/24 02:12:40;;;;;;;;;;;9.00;99.90;;;;;;5155945;27;19907;-74
2022/04/24 02:15:08;;;;;;;;;;;9.00;99.90;;;;;;5155389;27;19903;-74
2022/04/24 02:17:34;;;;;;;;;;;9.00;99.90;;;;;;5155767;27;19967;-74
2022/04/24 02:20:00;;;;;;;;;;;8.90;99.90;;;;;;5155250;27;20344;-74
2022/04/24 02:22:35;;;;;;;;;;;8.90;99.90;;;;;;5155867;27;19945;-74
2022/04/24 02:25:00;;;;;;;;;;;9.00;99.90;;;;;;5155023;27;20248;-75
2022/04/24 02:27:26;;;;;;;;;;;8.90;99.90;;;;;;5155122;27;19914;-75
2022/04/24 02:29:52;;;;;;;;;;;8.90;99.90;;;;;;5136157;27;19911;-75
2022/04/24 02:32:18;;;;;;;;;;;8.90;99.90;;;;;;5154914;27;19907;-75
2022/04/24 02:34:43;;;;;;;;;;;8.90;99.90;;;;;;5155026;27;20257;-75
2022/04/24 02:37:09;;;;;;;;;;;8.90;99.90;;;;;;5154863;27;19934;-75
2022/04/24 02:39:35;;;;;;;;;;;8.90;99.90;;;;;;5155339;27;20010;-74
2022/04/24 02:42:01;;;;;;;;;;;8.90;99.90;;;;;;5154902;27;19907;-75
2022/04/24 02:44:27;;;;;;;;;;;8.90;99.90;;;;;;5155437;27;20348;-75
2022/04/24 02:46:52;;;;;;;;;;;8.90;99.90;;;;;;5154869;27;20018;-75
2022/04/24 02:49:18;;;;;;;;;;;8.90;99.90;;;;;;5155388;27;20350;-75
2022/04/24 02:51:44;;;;;;;;;;;8.90;99.90;;;;;;5155414;27;19914;-75
2022/04/24 02:54:10;;;;;;;;;;;8.90;99.90;;;;;;5154653;27;20001;-75
2022/04/24 02:56:35;;;;;;;;;;;8.90;99.90;;;;;;5155166;27;19958;-74
2022/04/24 02:59:01;;;;;;;;;;;8.90;99.90;;;;;;5154563;27;19908;-74
2022/04/24 03:01:26;;;;;;;;;;;8.80;99.90;;;;;;5155161;27;19907;-75
2022/04/24 03:03:52;;;;;;;;;;;8.90;99.90;;;;;;5154248;27;20394;-75
2022/04/24 03:06:18;;;;;;;;;;;8.90;99.90;;;;;;5154974;27;19907;-74
2022/04/24 03:08:45;;;;;;;;;;;8.90;99.90;;;;;;5154598;27;19957;-75
2022/04/24 03:11:10;;;;;;;;;;;8.90;99.90;;;;;;5154379;27;19935;-75
2022/04/24 03:13:36;;;;;;;;;;;8.90;99.90;;;;;;5155121;27;19908;-75
2022/04/24 03:16:01;;;;;;;;;;;8.90;99.90;;;;;;5154009;27;19907;-75
2022/04/24 03:18:46;;;;;;;;;;;8.90;99.90;;;;;;5154734;27;19908;-75
2022/04/24 03:21:11;;;;;;;;;;;8.90;99.90;;;;;;5154358;27;20502;-75
2022/04/24 03:23:37;;;;;;;;;;;8.90;99.90;;;;;;5136214;27;19969;-75
2022/04/24 03:26:03;;;;;;;;;;;8.90;99.90;;;;;;5154185;27;19930;-75
2022/04/24 03:28:28;;;;;;;;;;;8.90;99.90;;;;;;5154990;27;19907;-75
2022/04/24 03:30:54;;;;;;;;;;;8.80;99.90;;;;;;5154237;27;19994;-75
2022/04/24 03:33:20;;;;;;;;;;;8.80;99.90;;;;;;5154494;27;19914;-75
2022/04/24 03:35:46;;;;;;;;;;;8.80;99.90;;;;;;5154533;27;20343;-74
2022/04/24 03:38:11;;;;;;;;;;;8.80;99.90;;;;;;5154126;27;20091;-75
2022/04/24 03:40:37;;;;;;;;;;;8.80;99.90;;;;;;5154671;27;19913;-74
2022/04/24 03:43:02;;;;;;;;;;;8.80;99.90;;;;;;5153805;27;20030;-74
2022/04/24 03:45:28;;;;;;;;;;;8.70;99.90;;;;;;5157055;27;19911;-74
2022/04/24 03:47:54;;;;;;;;;;;8.80;99.90;;;;;;5158365;27;19907;-75
2022/04/24 03:50:19;;;;;;;;;;;8.70;99.90;;;;;;5158555;27;19910;-74
2022/04/24 03:52:45;;;;;;;;;;;8.70;99.90;;;;;;5158638;27;19913;-74
2022/04/24 03:55:11;;;;;;;;;;;8.70;99.90;;;;;;5158385;27;20313;-75
2022/04/24 03:57:36;;;;;;;;;;;8.60;99.90;;;;;;5140429;27;20010;-74
2022/04/24 04:00:02;;;;;;;;;;;8.60;99.90;;;;;;5157668;27;19911;-75
2022/04/24 04:02:28;;;;;;;;;;;8.60;99.90;;;;;;5158600;27;19950;-75
2022/04/24 04:04:54;;;;;;;;;;;8.60;99.90;;;;;;5158258;27;19953;-74
2022/04/24 04:07:19;;;;;;;;;;;8.60;99.90;;;;;;5158420;27;20352;-74
2022/04/24 04:09:45;;;;;;;;;;;8.50;99.90;;;;;;5158500;27;19914;-74
2022/04/24 04:12:10;;;;;;;;;;;8.50;99.90;;;;;;5157852;27;20125;-75
2022/04/24 04:14:36;;;;;;;;;;;8.40;99.90;;;;;;5158802;27;19907;-75
2022/04/24 04:17:02;;;;;;;;;;;8.40;99.90;;;;;;5157811;27;19911;-75
2022/04/24 04:19:28;;;;;;;;;;;8.40;99.90;;;;;;5157825;27;19963;-75
2022/04/24 04:21:53;;;;;;;;;;;8.30;99.90;;;;;;5157984;27;20383;-75
2022/04/24 04:24:19;;;;;;;;;;;8.30;99.90;;;;;;5157645;27;20010;-74
2022/04/24 04:26:44;;;;;;;;;;;8.30;99.90;;;;;;5157693;27;20007;-75
2022/04/24 04:29:10;;;;;;;;;;;8.20;99.90;;;;;;5157100;27;19907;-75
2022/04/24 04:31:36;;;;;;;;;;;8.20;99.90;;;;;;5157755;27;20330;-75
2022/04/24 04:34:02;;;;;;;;;;;8.20;99.90;;;;;;5157306;27;19958;-75
2022/04/24 04:36:27;;;;;;;;;;;8.10;99.90;;;;;;5157885;27;19911;-75
2022/04/24 04:38:53;;;;;;;;;;;8.10;99.90;;;;;;5157849;27;20342;-75
2022/04/24 04:41:19;;;;;;;;;;;8.10;99.90;;;;;;5157711;27;19914;-75
2022/04/24 04:43:44;;;;;;;;;;;8.10;99.90;;;;;;5157741;27;20284;-75
2022/04/24 04:46:10;;;;;;;;;;;8.10;99.90;;;;;;5156752;27;20367;-75
2022/04/24 04:48:35;;;;;;;;;;;8.10;99.90;;;;;;5157709;27;19916;-74
2022/04/24 04:51:01;;;;;;;;;;;8.10;99.90;;;;;;5157051;27;19907;-75
2022/04/24 04:53:26;;;;;;;;;;;8.10;99.90;;;;;;5157331;27;19914;-75
2022/04/24 04:55:52;;;;;;;;;;;8.00;99.90;;;;;;5157172;27;20389;-74
2022/04/24 04:58:18;;;;;;;;;;;8.00;99.90;;;;;;5157000;27;19914;-75
2022/04/24 05:00:43;;;;;;;;;;;8.00;99.90;;;;;;5157373;27;20006;-74
2022/04/24 05:03:09;;;;;;;;;;;7.90;99.90;;;;;;5156894;27;19922;-74
2022/04/24 05:05:35;;;;;;;;;;;7.90;99.90;;;;;;5157161;27;20001;-74
2022/04/24 05:08:00;;;;;;;;;;;7.90;99.90;;;;;;5156547;27;19908;-75
2022/04/24 05:10:26;;;;;;;;;;;7.80;99.90;;;;;;5157366;27;20411;-74
2022/04/24 05:12:51;;;;;;;;;;;7.80;99.90;;;;;;5157108;27;19917;-75
2022/04/24 05:15:17;;;;;;;;;;;7.80;99.90;;;;;;5156782;27;19907;-75
2022/04/24 05:17:44;;;;;;;;;;;7.80;99.90;;;;;;5157153;27;19915;-75
2022/04/24 05:20:13;;;;;;;;;;;7.90;99.90;;;;;;5156485;27;20458;-75
2022/04/24 05:22:39;;;;;;;;;;;8.00;99.90;;;;;;5157038;27;19907;-75
2022/04/24 05:25:06;;;;;;;;;;;8.00;99.90;;;;;;5156523;27;20260;-74
2022/04/24 05:27:32;;;;;;;;;;;8.10;99.90;;;;;;5156769;27;20438;-75
2022/04/24 05:29:58;;;;;;;;;;;8.10;99.90;;;;;;5138313;27;19950;-75
2022/04/24 05:32:23;;;;;;;;;;;8.20;99.90;;;;;;5156430;27;19907;-75
2022/04/24 05:34:49;;;;;;;;;;;8.20;99.90;;;;;;5156928;27;19914;-75
2022/04/24 05:37:14;;;;;;;;;;;8.30;99.90;;;;;;5156362;27;19907;-74
2022/04/24 05:39:40;;;;;;;;;;;8.30;99.90;;;;;;5156963;27;20411;-74
2022/04/24 05:42:06;;;;;;;;;;;8.40;99.90;;;;;;5156256;27;19907;-74
2022/04/24 05:44:31;;;;;;;;;;;8.40;99.90;;;;;;5138265;27;19921;-74
2022/04/24 05:46:57;;;;;;;;;;;8.50;99.90;;;;;;5156732;27;19907;-74
2022/04/24 05:49:22;;;;;;;;;;;8.60;99.90;;;;;;5155957;27;19960;-75
2022/04/24 05:51:48;;;;;;;;;;;8.60;99.90;;;;;;5156150;27;19956;-75
2022/04/24 05:54:15;;;;;;;;;;;8.70;99.90;;;;;;5155928;27;19959;-74
2022/04/24 05:56:41;;;;;;;;;;;8.70;99.90;;;;;;5156347;27;19940;-74
2022/04/24 05:59:08;;;;;;;;;;;8.80;99.90;;;;;;5155443;27;19907;-75
2022/04/24 06:01:34;;;;;;;;;;;8.90;99.90;;;;;;5156218;27;19939;-75
2022/04/24 06:03:59;;;;;;;;;;;9.00;99.90;;;;;;5137723;27;19962;-75
2022/04/24 06:06:25;;;;;;;;;;;9.10;99.90;;;;;;5155553;27;19908;-75
2022/04/24 06:08:51;;;;;;;;;;;9.10;99.90;;;;;;5155481;27;20376;-74
2022/04/24 06:11:18;;;;;;;;;;;9.20;99.90;;;;;;5155560;27;19952;-74
2022/04/24 06:13:45;;;;;;;;;;;9.30;99.90;;;;;;5155746;27;19907;-75
2022/04/24 06:16:11;;;;;;;;;;;9.40;99.90;;;;;;5155433;27;19907;-75
2022/04/24 06:18:36;;;;;;;;;;;9.50;99.90;;;;;;5155969;27;19914;-75
2022/04/24 06:21:02;;;;;;;;;;;9.60;99.90;;;;;;5155431;27;19911;-75
2022/04/24 06:23:29;;;;;;;;;;;9.60;99.90;;;;;;5155054;27;19941;-75
2022/04/24 06:25:54;;;;;;;;;;;9.70;99.90;;;;;;5155219;27;20005;-75
2022/04/24 06:28:20;;;;;;;;;;;9.70;99.90;;;;;;5154951;27;19954;-75
2022/04/24 06:30:47;;;;;;;;;;;9.90;99.90;;;;;;5155322;27;19968;-74
2022/04/24 06:33:13;;;;;;;;;;;10.00;99.90;;;;;;5136130;27;19907;-75
2022/04/24 06:35:39;;;;;;;;;;;10.10;99.90;;;;;;5155433;27;19952;-75
2022/04/24 06:38:05;;;;;;;;;;;10.00;99.90;;;;;;5154914;27;20356;-75
2022/04/24 06:40:31;;;;;;;;;;;10.10;99.90;;;;;;5155316;27;19960;-76
2022/04/24 06:42:56;;;;;;;;;;;10.20;99.90;;;;;;5155417;27;19937;-75
2022/04/24 06:45:27;;;;;;;;;;;10.10;99.90;;;;;;5154819;27;19918;-75
2022/04/24 06:47:56;;;;;;;;;;;10.10;99.90;;;;;;5155457;27;19911;-75
2022/04/24 06:50:22;;;;;;;;;;;10.20;99.90;;;;;;5154841;27;19915;-75
2022/04/24 06:53:08;;;;;;;;;;;10.30;99.90;;;;;;5155392;27;19907;-75
2022/04/24 06:55:35;;;;;;;;;;;10.30;99.90;;;;;;5154923;27;19919;-75
2022/04/24 06:58:01;;;;;;;;;;;10.30;99.90;;;;;;5155382;27;19907;-75
2022/04/24 07:00:27;;;;;;;;;;;10.20;99.90;;;;;;5154253;27;19910;-76
2022/04/24 07:02:53;;;;;;;;;;;10.30;99.90;;;;;;5155150;27;20348;-75
2022/04/24 07:05:23;;;;;;;;;;;10.40;99.90;;;;;;5154570;27;19914;-76
2022/04/24 07:07:49;;;;;;;;;;;10.30;99.90;;;;;;5155121;27;19911;-75
2022/04/24 07:10:14;;;;;;;;;;;10.40;99.90;;;;;;5154247;27;19917;-75
2022/04/24 07:12:51;;;;;;;;;;;10.50;99.90;;;;;;5155059;27;20287;-75
2022/04/24 07:15:18;;;;;;;;;;;10.60;99.90;;;;;;5154379;27;19907;-76
2022/04/24 07:17:44;;;;;;;;;;;10.90;99.90;;;;;;5154907;27;19907;-76
2022/04/24 07:20:10;;;;;;;;;;;10.80;99.90;;;;;;5153903;27;20284;-76
2022/04/24 07:22:45;;;;;;;;;;;10.80;99.90;;;;;;5154462;27;19907;-75
2022/04/24 07:25:12;;;;;;;;;;;10.70;99.90;;;;;;5154155;27;19946;-76
2022/04/24 07:27:38;;;;;;;;;;;10.70;99.90;;;;;;5154547;27;19946;-76
2022/04/24 07:30:03;;;;;;;;;;;10.80;99.90;;;;;;5154500;27;20279;-75
2022/04/24 07:32:37;;;;;;;;;;;11.00;99.90;;;;;;5154186;27;19917;-76
2022/04/24 07:35:02;;;;;;;;;;;11.00;99.90;;;;;;5154679;27;20312;-75
2022/04/24 07:37:28;;;;;;;;;;;11.10;99.90;;;;;;5153819;27;19907;-75
2022/04/24 07:39:53;;;;;;;;;;;11.20;99.90;;;;;;5154425;27;19995;-75
2022/04/24 07:42:19;;;;;;;;;;;11.20;99.90;;;;;;5154103;27;19907;-74
2022/04/24 07:44:48;;;;;;;;;;;11.30;99.90;;;;;;5135981;27;19915;-75
2022/04/24 07:47:14;;;;;;;;;;;11.40;99.90;;;;;;5154013;27;19950;-75
2022/04/24 07:49:39;;;;;;;;;;;11.40;99.90;;;;;;5154574;27;20348;-75
2022/04/24 07:52:05;;;;;;;;;;;11.40;99.90;;;;;;5154505;27;19908;-75
2022/04/24 07:54:31;;;;;;;;;;;11.50;99.90;;;;;;5153838;27;19911;-75
2022/04/24 07:56:56;;;;;;;;;;;11.60;99.90;;;;;;5154059;27;19926;-75
2022/04/24 07:59:22;;;;;;;;;;;11.70;99.90;;;;;;5154260;27;19911;-75
2022/04/24 08:01:51;;;;;;;;;;;11.80;99.90;;;;;;5154121;27;20261;-75
2022/04/24 08:04:17;;;;;;;;;;;12.00;99.90;;;;;;5153569;27;20504;-75
2022/04/24 08:06:43;;;;;;;;;;;11.90;99.90;;;;;;5154357;27;19911;-75
2022/04/24 08:09:08;;;;;;;;;;;11.90;99.90;;;;;;5154354;27;19907;-75
2022/04/24 08:11:34;;;;;;;;;;;11.80;99.90;;;;;;5153726;27;19907;-75
2022/04/24 08:13:59;;;;;;;;;;;11.70;99.90;;;;;;5154316;27;20328;-75
2022/04/24 08:16:26;;;;;;;;;;;11.80;99.90;;;;;;5153582;27;20009;-75
2022/04/24 08:18:52;;;;;;;;;;;11.80;99.90;;;;;;5154084;27;20287;-75
2022/04/24 08:21:18;;;;;;;;;;;11.80;99.90;;;;;;5153680;27;20030;-74
2022/04/24 08:23:43;;;;;;;;;;;11.80;99.90;;;;;;5154266;27;20013;-74
2022/04/24 08:26:10;;;;;;;;;;;11.80;99.90;;;;;;5153458;27;19911;-74
2022/04/24 08:28:36;;;;;;;;;;;11.90;99.90;;;;;;5153685;27;19929;-75
2022/04/24 08:31:02;;;;;;;;;;;11.90;99.90;;;;;;5155296;27;20360;-75
2022/04/24 08:33:28;;;;;;;;;;;11.70;99.90;;;;;;5138935;27;19996;-74
2022/04/24 08:35:53;;;;;;;;;;;11.70;99.90;;;;;;5157905;27;20309;-74
2022/04/24 08:38:19;;;;;;;;;;;11.70;99.90;;;;;;5157211;27;20355;-74
2022/04/24 08:40:45;;;;;;;;;;;11.70;99.90;;;;;;5157998;27;19945;-74
2022/04/24 08:43:12;;;;;;;;;;;11.50;99.90;;;;;;5157859;27;20359;-75
2022/04/24 08:45:40;;;;;;;;;;;11.40;99.90;;;;;;5157455;27;19908;-75
2022/04/24 08:48:06;;;;;;;;;;;11.50;99.90;;;;;;5157035;27;20009;-75
2022/04/24 08:50:32;;;;;;;;;;;11.60;99.90;;;;;;5156745;27;19926;-75
2022/04/24 08:52:58;;;;;;;;;;;11.60;99.90;;;;;;5157337;27;19907;-75
2022/04/24 08:55:27;;;;;;;;;;;11.50;99.90;;;;;;5156302;27;19941;-74
2022/04/24 08:57:53;;;;;;;;;;;11.50;99.90;;;;;;5157784;27;19915;-74
2022/04/24 09:00:19;;;;;;;;;;;11.70;99.90;;;;;;5157221;27;20269;-75
2022/04/24 09:02:45;;;;;;;;;;;12.00;99.90;;;;;;5157280;27;19907;-75
2022/04/24 09:05:11;;;;;;;;;;;12.00;99.90;;;;;;5138638;27;19913;-75
2022/04/24 09:07:38;;;;;;;;;;;11.90;99.90;;;;;;5156410;27;19911;-75
2022/04/24 09:10:07;;;;;;;;;;;11.90;99.90;;;;;;5157044;27;20006;-75
2022/04/24 09:12:33;;;;;;;;;;;12.00;99.90;;;;;;5156350;27;19911;-75
2022/04/24 09:14:59;;;;;;;;;;;11.80;99.90;;;;;;5157177;27;20298;-74
2022/04/24 09:17:29;;;;;;;;;;;11.90;99.90;;;;;;5157338;27;19907;-75
2022/04/24 09:19:55;;;;;;;;;;;11.90;99.90;;;;;;5156818;27;19972;-74
2022/04/24 09:22:24;;;;;;;;;;;12.00;99.90;;;;;;5156250;27;20378;-74
2022/04/24 09:24:59;;;;;;;;;;;12.10;99.90;;;;;;5138092;27;19915;-74
2022/04/24 09:27:27;;;;;;;;;;;12.00;99.90;;;;;;5156191;27;19918;-75
2022/04/24 09:29:55;;;;;;;;;;;11.90;99.90;;;;;;5156861;27;19918;-75
2022/04/24 09:32:23;;;;;;;;;;;12.00;99.90;;;;;;5156074;27;19911;-75
2022/04/24 09:34:48;;;;;;;;;;;12.20;99.90;;;;;;5156648;27;20351;-75
2022/04/24 09:37:14;;;;;;;;;;;12.00;99.90;;;;;;5156719;27;19914;-74
2022/04/24 09:39:40;;;;;;;;;;;11.90;99.90;;;;;;5155593;27;20423;-75
2022/04/24 09:42:07;;;;;;;;;;;11.70;99.90;;;;;;5155536;27;20002;-74
2022/04/24 09:44:43;;;;;;;;;;;11.50;99.90;;;;;;5155742;27;19919;-75
2022/04/24 09:47:10;;;;;;;;;;;11.60;99.90;;;;;;5156165;27;19987;-74
2022/04/24 09:49:38;;;;;;;;;;;11.40;99.90;;;;;;5155763;27;19915;-74
2022/04/24 09:52:10;;;;;;;;;;;11.40;99.90;;;;;;5156485;27;20408;-75
2022/04/24 09:54:40;;;;;;;;;;;11.50;99.90;;;;;;5155454;27;19918;-75
2022/04/24 09:57:06;;;;;;;;;;;11.70;99.90;;;;;;5156208;27;19923;-74
2022/04/24 09:59:33;;;;;;;;;;;11.70;99.90;;;;;;5155636;27;19944;-74
2022/04/24 10:01:59;;;;;;;;;;;12.00;99.90;;;;;;5155951;27;19907;-75
2022/04/24 10:04:24;;;;;;;;;;;12.20;99.90;;;;;;5155425;27;20425;-75
2022/04/24 10:06:51;;;;;;;;;;;12.20;99.90;;;;;;5136681;27;20292;-75
2022/04/24 10:09:17;;;;;;;;;;;12.00;99.90;;;;;;5155969;27;19907;-75
2022/04/24 10:11:42;;;;;;;;;;;12.00;99.90;;;;;;5155188;27;19911;-74
2022/04/24 10:14:09;;;;;;;;;;;12.00;99.90;;;;;;5155718;27;20264;-75
2022/04/24 10:16:34;;;;;;;;;;;12.00;99.90;;;;;;5155107;27;19957;-75
2022/04/24 10:19:06;;;;;;;;;;;11.90;99.90;;;;;;5155653;27;19943;-75
2022/04/24 10:21:37;;;;;;;;;;;11.90;99.90;;;;;;5155147;27;20268;-75
2022/04/24 10:24:06;;;;;;;;;;;12.10;99.90;;;;;;5155730;27;19926;-75
2022/04/24 10:26:32;;;;;;;;;;;12.00;99.90;;;;;;5154623;27;20315;-75
2022/04/24 10:29:04;;;;;;;;;;;11.90;99.90;;;;;;5155542;27;19914;-74
2022/04/24 10:31:40;;;;;;;;;;;12.00;99.90;;;;;;5155345;27;19997;-75
2022/04/24 10:34:06;;;;;;;;;;;12.00;99.90;;;;;;5155458;27;19914;-74
2022/04/24 10:36:31;;;;;;;;;;;12.10;99.90;;;;;;5154740;27;19907;-75
2022/04/24 10:38:57;;;;;;;;;;;12.00;99.90;;;;;;5155322;27;19919;-75
2022/04/24 10:41:24;;;;;;;;;;;12.10;99.90;;;;;;5154682;27;19911;-75
2022/04/24 10:43:56;;;;;;;;;;;12.10;99.90;;;;;;5155238;27;20010;-75
2022/04/24 10:46:29;;;;;;;;;;;12.10;99.90;;;;;;5154787;27;19907;-75
2022/04/24 10:49:05;;;;;;;;;;;12.20;99.90;;;;;;5155386;27;19907;-75
2022/04/24 10:51:32;;;;;;;;;;;12.40;99.90;;;;;;5136199;27;19907;-76
2022/04/24 10:54:01;;;;;;;;;;;12.40;99.90;;;;;;5154579;27;20360;-73
2022/04/24 10:56:28;;;;;;;;;;;12.50;99.90;;;;;;5154360;27;19925;-74
2022/04/24 10:59:04;;;;;;;;;;;12.50;99.90;;;;;;5154953;27;20375;-75
2022/04/24 11:01:33;;;;;;;;;;;12.50;99.90;;;;;;5154580;27;19907;-74
2022/04/24 11:04:04;;;;;;;;;;;12.50;99.90;;;;;;5154936;27;19983;-74
2022/04/24 11:06:29;;;;;;;;;;;12.40;99.90;;;;;;5154269;27;19955;-73
2022/04/24 11:09:05;;;;;;;;;;;12.40;99.90;;;;;;5135682;27;19907;-76
2022/04/24 11:11:31;;;;;;;;;;;12.40;99.90;;;;;;5155134;27;19907;-76
2022/04/24 11:13:59;;;;;;;;;;;12.40;99.90;;;;;;5154171;27;19907;-76
2022/04/24 11:16:24;;;;;;;;;;;12.50;99.90;;;;;;5153647;27;19968;-76
2022/04/24 11:18:52;;;;;;;;;;;12.40;99.90;;;;;;5153943;27;20352;-76
2022/04/24 11:21:19;;;;;;;;;;;12.50;99.90;;;;;;5154109;27;20379;-76
2022/04/24 11:23:45;;;;;;;;;;;12.60;99.90;;;;;;5134765;27;20760;-76
2022/04/24 11:26:12;;;;;;;;;;;12.30;99.90;;;;;;5154363;27;20352;-76
2022/04/24 11:28:38;;;;;;;;;;;12.40;99.90;;;;;;5153084;27;19907;-76
2022/04/24 11:31:14;;;;;;;;;;;12.40;99.90;;;;;;5153646;27;19914;-76
2022/04/24 11:33:50;;;;;;;;;;;12.50;99.90;;;;;;5153300;27;19919;-76
2022/04/24 11:36:16;;;;;;;;;;;12.30;99.90;;;;;;5153967;27;19915;-75
2022/04/24 11:38:44;;;;;;;;;;;12.40;99.90;;;;;;5153260;27;19911;-76
2022/04/24 11:41:11;;;;;;;;;;;12.30;99.90;;;;;;5154282;27;19907;-76
2022/04/24 11:43:41;;;;;;;;;;;12.40;99.90;;;;;;5153819;27;19915;-76
2022/04/24 11:51:47;;;;;;;;;;;12.50;99.90;;;;;;5078530;27;19911;-75
2022/04/24 11:54:13;;;;;;;;;;;12.50;99.90;;;;;;5153802;27;19911;-74
2022/04/24 11:56:39;;;;;;;;;;;12.50;99.90;;;;;;5152812;27;19919;-74
2022/04/24 11:59:15;;;;;;;;;;;12.30;99.90;;;;;;5153532;27;19911;-74
2022/04/24 12:01:45;;;;;;;;;;;12.20;99.90;;;;;;5152944;27;19908;-75
2022/04/24 12:04:18;;;;;;;;;;;12.30;99.90;;;;;;5153409;27;20371;-74
2022/04/24 12:06:43;;;;;;;;;;;12.50;99.90;;;;;;5155423;27;19952;-74
2022/04/24 12:09:10;;;;;;;;;;;12.60;99.90;;;;;;5157767;27;19911;-74
2022/04/24 12:11:36;;;;;;;;;;;12.50;99.90;;;;;;5156931;27;19907;-74
2022/04/24 12:14:02;;;;;;;;;;;12.60;99.90;;;;;;5157820;27;19907;-74
2022/04/24 12:16:28;;;;;;;;;;;12.50;99.90;;;;;;5156899;27;19952;-75
2022/04/24 12:18:57;;;;;;;;;;;12.60;99.90;;;;;;5158009;27;20255;-75
2022/04/24 12:21:23;;;;;;;;;;;12.60;99.90;;;;;;5157245;27;19911;-75
2022/04/24 12:23:50;;;;;;;;;;;12.60;99.90;;;;;;5156699;27;19915;-75
2022/04/24 12:26:15;;;;;;;;;;;12.60;99.90;;;;;;5157038;27;19907;-75
2022/04/24 12:28:41;;;;;;;;;;;12.70;99.90;;;;;;5156460;27;20347;-75
2022/04/24 12:31:07;;;;;;;;;;;12.70;99.90;;;;;;5157397;27;19907;-75
2022/04/24 12:33:44;;;;;;;;;;;12.80;99.90;;;;;;5156813;27;19915;-75
2022/04/24 12:36:14;;;;;;;;;;;12.80;99.90;;;;;;5156872;27;20382;-75
2022/04/24 12:38:55;;;;;;;;;;;12.80;99.90;;;;;;5156492;27;20003;-75
2022/04/24 12:41:22;;;;;;;;;;;12.70;99.90;;;;;;5157091;27;19960;-75
2022/04/24 12:43:48;;;;;;;;;;;12.80;99.90;;;;;;5156224;27;20803;-75
2022/04/24 12:46:14;;;;;;;;;;;13.00;99.90;;;;;;5156845;27;19911;-75
2022/04/24 12:48:50;;;;;;;;;;;13.10;99.90;;;;;;5156715;27;19911;-75
2022/04/24 12:51:16;;;;;;;;;;;13.20;99.90;;;;;;5156680;27;20375;-75
2022/04/24 12:53:41;;;;;;;;;;;13.00;99.90;;;;;;5137747;27;19911;-75
2022/04/24 12:56:07;;;;;;;;;;;13.00;99.90;;;;;;5138223;27;20364;-75
2022/04/24 12:58:32;;;;;;;;;;;12.90;99.90;;;;;;5156066;27;20018;-75
2022/04/24 13:00:59;;;;;;;;;;;12.80;99.90;;;;;;5156935;27;20271;-75
2022/04/24 13:03:24;;;;;;;;;;;12.80;99.90;;;;;;5156777;27;19967;-75
2022/04/24 13:05:51;;;;;;;;;;;12.90;99.90;;;;;;5155609;27;20380;-75
2022/04/24 13:08:17;;;;;;;;;;;13.00;99.90;;;;;;5157034;27;19907;-75
2022/04/24 13:10:43;;;;;;;;;;;12.90;99.90;;;;;;5156408;27;20237;-75
2022/04/24 13:13:08;;;;;;;;;;;13.00;99.90;;;;;;5157086;27;20368;-75
2022/04/24 13:15:35;;;;;;;;;;;12.70;99.90;;;;;;5156016;27;19914;-75
2022/04/24 13:18:07;;;;;;;;;;;12.80;99.90;;;;;;5156737;27;19907;-75
2022/04/24 13:20:40;;;;;;;;;;;12.90;99.90;;;;;;5156307;27;19918;-75
2022/04/24 13:23:07;;;;;;;;;;;13.00;99.90;;;;;;5156793;27;19923;-75
2022/04/24 13:25:33;;;;;;;;;;;12.90;99.90;;;;;;5156344;27;20001;-75
2022/04/24 13:27:59;;;;;;;;;;;12.90;99.90;;;;;;5156527;27;20283;-75
2022/04/24 13:30:25;;;;;;;;;;;12.90;99.90;;;;;;5156707;27;19914;-75
2022/04/24 13:32:50;;;;;;;;;;;13.10;99.90;;;;;;5155831;27;19917;-75
2022/04/24 13:35:16;;;;;;;;;;;13.20;99.90;;;;;;5156639;27;20344;-75
2022/04/24 13:40:25;;;;;;;;;;;13.10;99.90;;;;;;5156605;27;19914;-75
2022/04/24 13:42:51;;;;;;;;;;;13.10;99.90;;;;;;5155587;27;19994;-75
2022/04/24 13:45:17;;;;;;;;;;;12.90;99.90;;;;;;5156550;27;20313;-75
2022/04/24 13:47:43;;;;;;;;;;;13.00;99.90;;;;;;5155620;27;20320;-75
2022/04/24 13:50:08;;;;;;;;;;;13.00;99.90;;;;;;5156732;27;20356;-75
2022/04/24 13:52:34;;;;;;;;;;;12.90;99.90;;;;;;5155572;27;20347;-75
2022/04/24 13:55:00;;;;;;;;;;;13.00;99.90;;;;;;5137534;27;20320;-75
2022/04/24 13:57:25;;;;;;;;;;;13.00;99.90;;;;;;5156257;27;19930;-76
2022/04/24 13:59:51;;;;;;;;;;;13.00;99.90;;;;;;5155073;27;19983;-76
2022/04/24 14:02:17;;;;;;;;;;;13.00;99.90;;;;;;5136886;27;19914;-76
2022/04/24 14:04:42;;;;;;;;;;;13.10;99.90;;;;;;5155022;27;19919;-74
2022/04/24 14:07:08;;;;;;;;;;;13.10;99.90;;;;;;5156064;27;19907;-74
2022/04/24 14:09:36;;;;;;;;;;;13.20;99.90;;;;;;5155035;27;19955;-75
2022/04/24 14:12:02;;;;;;;;;;;13.30;99.90;;;;;;5155842;27;19943;-75
2022/04/24 14:14:28;;;;;;;;;;;13.40;99.90;;;;;;5155858;27;19954;-74
2022/04/24 14:16:53;;;;;;;;;;;13.60;99.90;;;;;;5155650;27;20451;-75
2022/04/24 14:19:19;;;;;;;;;;;13.70;99.90;;;;;;5155540;27;19907;-75
2022/04/24 14:21:44;;;;;;;;;;;13.80;99.90;;;;;;5154933;27;19907;-75
2022/04/24 14:24:10;;;;;;;;;;;13.70;99.90;;;;;;5155688;27;19922;-75
2022/04/24 14:26:36;;;;;;;;;;;13.70;99.90;;;;;;5155064;27;20305;-75
2022/04/24 14:29:02;;;;;;;;;;;13.60;99.90;;;;;;5154732;27;19908;-75